sensor_id;sensor_type;location;lat;lon;timestamp;pressure;altitude;pressure_sealevel;temperature;humidity
39341;BME280;25059;52.132;21.062;2023-05-20T00:00:07;101423.53;;;24.58;52.07
39341;BME280;25059;52.132;21.062;2023-05-20T00:03:19;101436.47;;;24.31;52.84
39341;BME280;25059;52.132;21.062;2023-05-20T00:06:03;101420.84;;;24.47;52.16
39341;BME280;25059;52.132;21.062;2023-05-20T00:08:48;101418.03;;;24.37;52.30
39341;BME280;25059;52.132;21.062;2023-05-20T00:11:32;101419.66;;;24.94;51.46
39341;BME280;25059;52.132;21.062;2023-05-20T00:14:17;101423.03;;;24.42;52.42
39341;BME280;25059;52.132;21.062;2023-05-20T00:17:02;101416.69;;;24.32;52.65
39341;BME280;25059;52.132;21.062;2023-05-20T00:19:46;101403.50;;;24.40;52.12
39341;BME280;25059;52.132;21.062;2023-05-20T00:22:31;101403.78;;;23.79;53.49
39341;BME280;25059;52.132;21.062;2023-05-20T00:25:15;101406.09;;;23.49;53.94
39341;BME280;25059;52.132;21.062;2023-05-20T00:28:00;101406.34;;;23.81;53.41
39341;BME280;25059;52.132;21.062;2023-05-20T00:30:44;101407.84;;;23.96;52.70
39341;BME280;25059;52.132;21.062;2023-05-20T00:33:29;101402.97;;;23.55;53.70
39341;BME280;25059;52.132;21.062;2023-05-20T00:36:14;101399.13;;;23.81;52.96
39341;BME280;25059;52.132;21.062;2023-05-20T00:38:58;101409.28;;;23.89;53.04
39341;BME280;25059;52.132;21.062;2023-05-20T00:41:43;101402.63;;;23.60;53.70
39341;BME280;25059;52.132;21.062;2023-05-20T00:44:28;101407.56;;;23.88;53.44
39341;BME280;25059;52.132;21.062;2023-05-20T00:47:14;101392.69;;;24.17;52.96
39341;BME280;25059;52.132;21.062;2023-05-20T00:49:59;101420.75;;;23.80;53.67
39341;BME280;25059;52.132;21.062;2023-05-20T00:52:44;101396.03;;;23.29;54.49
39341;BME280;25059;52.132;21.062;2023-05-20T00:55:38;101397.66;;;23.77;53.71
39341;BME280;25059;52.132;21.062;2023-05-20T00:58:22;101401.66;;;23.37;54.24
39341;BME280;25059;52.132;21.062;2023-05-20T01:01:06;101412.56;;;23.46;54.65
39341;BME280;25059;52.132;21.062;2023-05-20T01:03:54;101408.91;;;23.82;53.57
39341;BME280;25059;52.132;21.062;2023-05-20T01:06:41;101412.09;;;23.88;53.09
39341;BME280;25059;52.132;21.062;2023-05-20T01:09:26;101415.50;;;23.90;53.32
39341;BME280;25059;52.132;21.062;2023-05-20T01:12:15;101404.22;;;24.31;52.55
39341;BME280;25059;52.132;21.062;2023-05-20T01:15:06;101408.72;;;24.19;53.00
39341;BME280;25059;52.132;21.062;2023-05-20T01:18:00;101418.13;;;24.25;52.68
39341;BME280;25059;52.132;21.062;2023-05-20T01:20:46;101404.41;;;24.05;53.16
39341;BME280;25059;52.132;21.062;2023-05-20T01:23:40;101400.72;;;23.84;53.07
39341;BME280;25059;52.132;21.062;2023-05-20T01:26:37;101399.63;;;23.51;53.52
39341;BME280;25059;52.132;21.062;2023-05-20T01:29:21;101413.03;;;23.75;53.33
39341;BME280;25059;52.132;21.062;2023-05-20T01:32:10;101405.44;;;24.49;52.01
39341;BME280;25059;52.132;21.062;2023-05-20T01:34:56;101411.91;;;24.35;52.14
39341;BME280;25059;52.132;21.062;2023-05-20T01:37:42;101414.31;;;24.05;52.63
39341;BME280;25059;52.132;21.062;2023-05-20T01:40:28;101411.56;;;24.40;51.65
39341;BME280;25059;52.132;21.062;2023-05-20T01:43:12;101408.56;;;24.09;51.84
39341;BME280;25059;52.132;21.062;2023-05-20T01:45:57;101410.28;;;24.22;52.18
39341;BME280;25059;52.132;21.062;2023-05-20T01:49:07;101408.38;;;24.46;51.08
39341;BME280;25059;52.132;21.062;2023-05-20T01:51:52;101388.22;;;24.29;51.57
39341;BME280;25059;52.132;21.062;2023-05-20T01:54:38;101403.00;;;24.46;51.53
39341;BME280;25059;52.132;21.062;2023-05-20T01:57:23;101395.06;;;24.44;51.35
39341;BME280;25059;52.132;21.062;2023-05-20T02:00:23;101393.34;;;24.43;51.15
39341;BME280;25059;52.132;21.062;2023-05-20T02:03:07;101400.44;;;24.44;51.13
39341;BME280;25059;52.132;21.062;2023-05-20T02:06:17;101401.31;;;23.76;52.41
39341;BME280;25059;52.132;21.062;2023-05-20T02:09:03;101395.50;;;24.16;51.89
39341;BME280;25059;52.132;21.062;2023-05-20T02:11:47;101389.31;;;24.49;51.28
39341;BME280;25059;52.132;21.062;2023-05-20T02:14:32;101380.97;;;24.07;51.75
39341;BME280;25059;52.132;21.062;2023-05-20T02:17:17;101397.88;;;24.43;51.33
39341;BME280;25059;52.132;21.062;2023-05-20T02:20:01;101399.94;;;24.51;51.27
39341;BME280;25059;52.132;21.062;2023-05-20T02:22:52;101399.56;;;24.44;50.98
39341;BME280;25059;52.132;21.062;2023-05-20T02:25:36;101399.69;;;24.31;51.51
39341;BME280;25059;52.132;21.062;2023-05-20T02:28:21;101404.94;;;24.55;50.75
39341;BME280;25059;52.132;21.062;2023-05-20T02:31:05;101402.03;;;24.36;51.16
39341;BME280;25059;52.132;21.062;2023-05-20T02:33:50;101409.34;;;24.56;50.69
39341;BME280;25059;52.132;21.062;2023-05-20T02:39:24;101411.66;;;24.61;50.92
39341;BME280;25059;52.132;21.062;2023-05-20T02:42:11;101395.16;;;24.65;50.66
39341;BME280;25059;52.132;21.062;2023-05-20T02:44:55;101388.28;;;24.72;50.24
39341;BME280;25059;52.132;21.062;2023-05-20T02:47:42;101408.47;;;24.11;51.65
39341;BME280;25059;52.132;21.062;2023-05-20T02:50:26;101407.38;;;24.13;51.26
39341;BME280;25059;52.132;21.062;2023-05-20T02:53:11;101411.09;;;25.11;49.51
39341;BME280;25059;52.132;21.062;2023-05-20T02:55:56;101405.47;;;25.03;49.71
39341;BME280;25059;52.132;21.062;2023-05-20T02:58:41;101404.16;;;24.98;49.45
39341;BME280;25059;52.132;21.062;2023-05-20T03:01:26;101405.34;;;25.05;49.51
39341;BME280;25059;52.132;21.062;2023-05-20T03:04:10;101412.19;;;25.09;49.48
39341;BME280;25059;52.132;21.062;2023-05-20T03:06:54;101404.69;;;25.24;49.16
39341;BME280;25059;52.132;21.062;2023-05-20T03:09:41;101406.53;;;24.35;50.75
39341;BME280;25059;52.132;21.062;2023-05-20T03:12:25;101405.94;;;24.43;50.52
39341;BME280;25059;52.132;21.062;2023-05-20T03:15:10;101412.41;;;24.52;50.57
39341;BME280;25059;52.132;21.062;2023-05-20T03:17:55;101414.44;;;24.26;51.22
39341;BME280;25059;52.132;21.062;2023-05-20T03:20:40;101413.13;;;24.54;50.98
39341;BME280;25059;52.132;21.062;2023-05-20T03:23:24;101393.66;;;24.84;50.07
39341;BME280;25059;52.132;21.062;2023-05-20T03:26:11;101411.00;;;25.02;49.90
39341;BME280;25059;52.132;21.062;2023-05-20T03:28:55;101412.94;;;24.89;49.80
39341;BME280;25059;52.132;21.062;2023-05-20T03:31:39;101421.06;;;24.77;50.68
39341;BME280;25059;52.132;21.062;2023-05-20T03:34:24;101406.84;;;24.98;50.10
39341;BME280;25059;52.132;21.062;2023-05-20T03:37:11;101413.44;;;24.94;49.90
39341;BME280;25059;52.132;21.062;2023-05-20T03:39:56;101414.94;;;24.64;50.32
39341;BME280;25059;52.132;21.062;2023-05-20T03:42:40;101405.47;;;24.92;50.42
39341;BME280;25059;52.132;21.062;2023-05-20T03:45:25;101413.06;;;24.87;50.35
39341;BME280;25059;52.132;21.062;2023-05-20T03:48:09;101399.81;;;25.18;49.84
39341;BME280;25059;52.132;21.062;2023-05-20T03:50:54;101412.63;;;25.25;49.66
39341;BME280;25059;52.132;21.062;2023-05-20T03:53:38;101405.69;;;25.11;49.84
39341;BME280;25059;52.132;21.062;2023-05-20T03:56:23;101399.09;;;25.16;49.62
39341;BME280;25059;52.132;21.062;2023-05-20T03:59:07;101416.47;;;25.43;49.42
39341;BME280;25059;52.132;21.062;2023-05-20T04:01:52;101415.66;;;25.85;48.81
39341;BME280;25059;52.132;21.062;2023-05-20T04:04:37;101408.22;;;25.98;48.03
39341;BME280;25059;52.132;21.062;2023-05-20T04:07:22;101406.25;;;26.00;48.03
39341;BME280;25059;52.132;21.062;2023-05-20T04:10:07;101404.75;;;26.37;47.53
39341;BME280;25059;52.132;21.062;2023-05-20T04:12:52;101392.13;;;26.38;47.50
39341;BME280;25059;52.132;21.062;2023-05-20T04:15:37;101395.16;;;26.24;47.44
39341;BME280;25059;52.132;21.062;2023-05-20T04:18:21;101411.25;;;26.65;46.78
39341;BME280;25059;52.132;21.062;2023-05-20T04:21:06;101402.28;;;26.65;46.89
39341;BME280;25059;52.132;21.062;2023-05-20T04:23:51;101406.47;;;26.88;46.53
39341;BME280;25059;52.132;21.062;2023-05-20T04:26:36;101411.09;;;27.26;45.83
39341;BME280;25059;52.132;21.062;2023-05-20T04:29:20;101405.81;;;27.54;45.43
39341;BME280;25059;52.132;21.062;2023-05-20T04:32:06;101401.41;;;27.72;45.10
39341;BME280;25059;52.132;21.062;2023-05-20T04:34:52;101394.56;;;27.87;45.01
39341;BME280;25059;52.132;21.062;2023-05-20T04:37:37;101415.38;;;28.24;44.36
39341;BME280;25059;52.132;21.062;2023-05-20T04:40:22;101394.47;;;28.16;43.85
39341;BME280;25059;52.132;21.062;2023-05-20T04:43:06;101410.38;;;27.63;44.40
39341;BME280;25059;52.132;21.062;2023-05-20T04:45:51;101407.22;;;27.77;44.95
39341;BME280;25059;52.132;21.062;2023-05-20T04:48:37;101403.81;;;27.75;45.10
39341;BME280;25059;52.132;21.062;2023-05-20T04:51:21;101409.09;;;27.77;44.69
39341;BME280;25059;52.132;21.062;2023-05-20T04:54:06;101397.44;;;28.23;43.63
39341;BME280;25059;52.132;21.062;2023-05-20T04:56:51;101390.81;;;28.45;43.31
39341;BME280;25059;52.132;21.062;2023-05-20T04:59:35;101411.28;;;28.75;43.15
39341;BME280;25059;52.132;21.062;2023-05-20T05:02:20;101407.78;;;28.37;43.00
39341;BME280;25059;52.132;21.062;2023-05-20T05:05:05;101406.78;;;28.93;42.17
39341;BME280;25059;52.132;21.062;2023-05-20T05:07:49;101407.81;;;29.27;42.08
39341;BME280;25059;52.132;21.062;2023-05-20T05:10:34;101392.03;;;29.05;42.17
39341;BME280;25059;52.132;21.062;2023-05-20T05:13:19;101408.50;;;29.30;42.21
39341;BME280;25059;52.132;21.062;2023-05-20T05:16:04;101406.59;;;28.77;42.32
39341;BME280;25059;52.132;21.062;2023-05-20T05:18:49;101412.38;;;29.09;41.82
39341;BME280;25059;52.132;21.062;2023-05-20T05:21:34;101412.47;;;29.17;41.51
39341;BME280;25059;52.132;21.062;2023-05-20T05:24:18;101415.00;;;29.72;40.61
39341;BME280;25059;52.132;21.062;2023-05-20T05:27:03;101408.59;;;29.38;41.00
39341;BME280;25059;52.132;21.062;2023-05-20T05:29:47;101412.91;;;29.13;41.56
39341;BME280;25059;52.132;21.062;2023-05-20T05:32:32;101414.63;;;29.67;41.35
39341;BME280;25059;52.132;21.062;2023-05-20T05:35:17;101411.22;;;30.09;40.89
39341;BME280;25059;52.132;21.062;2023-05-20T05:38:02;101411.81;;;30.29;40.18
39341;BME280;25059;52.132;21.062;2023-05-20T05:40:47;101412.88;;;29.84;40.21
39341;BME280;25059;52.132;21.062;2023-05-20T05:43:31;101402.09;;;29.92;40.13
39341;BME280;25059;52.132;21.062;2023-05-20T05:46:16;101414.06;;;30.07;39.13
39341;BME280;25059;52.132;21.062;2023-05-20T05:49:01;101404.53;;;29.77;40.10
39341;BME280;25059;52.132;21.062;2023-05-20T05:51:45;101400.91;;;29.95;40.30
39341;BME280;25059;52.132;21.062;2023-05-20T05:54:30;101416.03;;;30.23;39.60
39341;BME280;25059;52.132;21.062;2023-05-20T05:57:15;101414.09;;;30.41;39.50
39341;BME280;25059;52.132;21.062;2023-05-20T06:00:00;101414.81;;;30.51;39.87
39341;BME280;25059;52.132;21.062;2023-05-20T06:02:45;101427.34;;;30.44;39.63
39341;BME280;25059;52.132;21.062;2023-05-20T06:05:30;101405.72;;;30.61;39.76
39341;BME280;25059;52.132;21.062;2023-05-20T06:08:15;101421.56;;;30.81;38.89
39341;BME280;25059;52.132;21.062;2023-05-20T06:11:00;101423.38;;;31.15;38.72
39341;BME280;25059;52.132;21.062;2023-05-20T06:13:45;101425.44;;;31.37;38.40
39341;BME280;25059;52.132;21.062;2023-05-20T06:16:30;101413.19;;;31.17;38.39
39341;BME280;25059;52.132;21.062;2023-05-20T06:19:14;101424.75;;;30.69;39.14
39341;BME280;25059;52.132;21.062;2023-05-20T06:21:59;101401.31;;;31.18;38.59
39341;BME280;25059;52.132;21.062;2023-05-20T06:24:43;101417.72;;;31.08;38.55
39341;BME280;25059;52.132;21.062;2023-05-20T06:27:28;101412.97;;;31.02;38.69
39341;BME280;25059;52.132;21.062;2023-05-20T06:30:12;101409.31;;;30.35;39.52
39341;BME280;25059;52.132;21.062;2023-05-20T06:32:57;101426.50;;;29.92;39.96
39341;BME280;25059;52.132;21.062;2023-05-20T06:35:41;101406.31;;;29.69;40.17
39341;BME280;25059;52.132;21.062;2023-05-20T06:38:26;101414.16;;;29.98;40.21
39341;BME280;25059;52.132;21.062;2023-05-20T06:41:10;101418.25;;;30.28;40.16
39341;BME280;25059;52.132;21.062;2023-05-20T06:43:55;101411.38;;;30.41;39.73
39341;BME280;25059;52.132;21.062;2023-05-20T06:46:39;101407.56;;;29.74;40.15
39341;BME280;25059;52.132;21.062;2023-05-20T06:49:24;101409.13;;;30.03;40.00
39341;BME280;25059;52.132;21.062;2023-05-20T06:52:09;101411.03;;;29.84;40.86
39341;BME280;25059;52.132;21.062;2023-05-20T06:54:54;101405.34;;;29.34;41.15
39341;BME280;25059;52.132;21.062;2023-05-20T06:57:39;101404.88;;;29.03;42.28
39341;BME280;25059;52.132;21.062;2023-05-20T07:00:24;101397.81;;;29.28;42.20
39341;BME280;25059;52.132;21.062;2023-05-20T07:03:08;101403.56;;;29.86;40.58
39341;BME280;25059;52.132;21.062;2023-05-20T07:05:55;101408.63;;;29.81;40.83
39341;BME280;25059;52.132;21.062;2023-05-20T07:08:39;101399.06;;;29.51;41.67
39341;BME280;25059;52.132;21.062;2023-05-20T07:11:23;101397.28;;;29.60;41.64
39341;BME280;25059;52.132;21.062;2023-05-20T07:14:08;101402.19;;;29.82;41.61
39341;BME280;25059;52.132;21.062;2023-05-20T07:16:53;101393.91;;;30.10;40.58
39341;BME280;25059;52.132;21.062;2023-05-20T07:19:38;101393.25;;;30.50;40.33
39341;BME280;25059;52.132;21.062;2023-05-20T07:22:22;101395.75;;;29.83;41.53
39341;BME280;25059;52.132;21.062;2023-05-20T07:25:07;101401.56;;;30.48;40.79
39341;BME280;25059;52.132;21.062;2023-05-20T07:27:52;101394.47;;;30.56;40.79
39341;BME280;25059;52.132;21.062;2023-05-20T07:30:36;101389.13;;;30.72;40.02
39341;BME280;25059;52.132;21.062;2023-05-20T07:33:21;101394.81;;;31.11;39.17
39341;BME280;25059;52.132;21.062;2023-05-20T07:36:07;101392.28;;;31.66;38.85
39341;BME280;25059;52.132;21.062;2023-05-20T07:38:51;101388.75;;;31.41;39.18
39341;BME280;25059;52.132;21.062;2023-05-20T07:41:37;101384.50;;;31.39;38.73
39341;BME280;25059;52.132;21.062;2023-05-20T07:44:21;101390.44;;;30.60;40.63
39341;BME280;25059;52.132;21.062;2023-05-20T07:47:06;101387.25;;;30.72;40.12
39341;BME280;25059;52.132;21.062;2023-05-20T07:49:51;101386.78;;;30.85;40.20
39341;BME280;25059;52.132;21.062;2023-05-20T07:52:35;101386.66;;;30.52;41.27
39341;BME280;25059;52.132;21.062;2023-05-20T07:55:20;101378.53;;;29.93;41.42
39341;BME280;25059;52.132;21.062;2023-05-20T07:58:05;101368.28;;;30.89;40.94
39341;BME280;25059;52.132;21.062;2023-05-20T08:00:50;101372.78;;;31.30;40.38
39341;BME280;25059;52.132;21.062;2023-05-20T08:03:35;101369.94;;;30.73;40.98
39341;BME280;25059;52.132;21.062;2023-05-20T08:06:20;101364.69;;;30.72;40.88
39341;BME280;25059;52.132;21.062;2023-05-20T08:09:05;101373.59;;;31.79;39.42
39341;BME280;25059;52.132;21.062;2023-05-20T08:11:49;101372.59;;;31.80;39.74
39341;BME280;25059;52.132;21.062;2023-05-20T08:14:34;101368.50;;;31.52;39.62
39341;BME280;25059;52.132;21.062;2023-05-20T08:17:19;101358.31;;;31.78;39.51
39341;BME280;25059;52.132;21.062;2023-05-20T08:20:04;101367.50;;;31.29;41.35
39341;BME280;25059;52.132;21.062;2023-05-20T08:22:48;101361.13;;;32.09;39.63
39341;BME280;25059;52.132;21.062;2023-05-20T08:25:33;101377.63;;;32.08;39.34
39341;BME280;25059;52.132;21.062;2023-05-20T08:28:18;101376.31;;;31.63;39.75
39341;BME280;25059;52.132;21.062;2023-05-20T08:31:02;101373.09;;;31.84;39.71
39341;BME280;25059;52.132;21.062;2023-05-20T08:33:47;101374.84;;;32.32;39.49
39341;BME280;25059;52.132;21.062;2023-05-20T08:36:32;101360.56;;;32.61;37.54
39341;BME280;25059;52.132;21.062;2023-05-20T08:39:16;101373.25;;;32.46;39.26
39341;BME280;25059;52.132;21.062;2023-05-20T08:42:01;101368.56;;;32.94;38.23
39341;BME280;25059;52.132;21.062;2023-05-20T08:44:46;101373.00;;;33.18;38.00
39341;BME280;25059;52.132;21.062;2023-05-20T08:47:31;101356.84;;;33.39;37.14
39341;BME280;25059;52.132;21.062;2023-05-20T08:50:16;101357.00;;;33.75;36.56
39341;BME280;25059;52.132;21.062;2023-05-20T08:53:01;101357.06;;;33.52;37.45
39341;BME280;25059;52.132;21.062;2023-05-20T08:55:51;101358.81;;;34.27;36.58
39341;BME280;25059;52.132;21.062;2023-05-20T08:58:35;101355.97;;;33.38;37.49
39341;BME280;25059;52.132;21.062;2023-05-20T09:01:23;101360.97;;;34.17;37.21
39341;BME280;25059;52.132;21.062;2023-05-20T09:04:08;101371.84;;;33.12;37.92
39341;BME280;25059;52.132;21.062;2023-05-20T09:06:53;101357.25;;;33.65;36.25
39341;BME280;25059;52.132;21.062;2023-05-20T09:09:38;101364.47;;;34.25;37.11
39341;BME280;25059;52.132;21.062;2023-05-20T09:12:23;101361.72;;;34.25;37.06
39341;BME280;25059;52.132;21.062;2023-05-20T09:15:08;101358.97;;;34.55;36.17
39341;BME280;25059;52.132;21.062;2023-05-20T09:17:53;101356.59;;;35.24;35.23
39341;BME280;25059;52.132;21.062;2023-05-20T09:20:38;101347.59;;;34.87;35.39
39341;BME280;25059;52.132;21.062;2023-05-20T09:23:24;101343.19;;;35.57;35.20
39341;BME280;25059;52.132;21.062;2023-05-20T09:26:09;101351.94;;;36.02;34.33
39341;BME280;25059;52.132;21.062;2023-05-20T09:28:56;101351.72;;;36.38;34.82
39341;BME280;25059;52.132;21.062;2023-05-20T09:31:41;101352.34;;;35.99;34.48
39341;BME280;25059;52.132;21.062;2023-05-20T09:34:26;101341.22;;;37.22;32.63
39341;BME280;25059;52.132;21.062;2023-05-20T09:37:13;101333.81;;;37.56;32.55
39341;BME280;25059;52.132;21.062;2023-05-20T09:43:46;101347.34;;;37.44;31.64
39341;BME280;25059;52.132;21.062;2023-05-20T09:46:33;101341.56;;;38.05;31.08
39341;BME280;25059;52.132;21.062;2023-05-20T09:49:18;101345.41;;;37.91;30.70
39341;BME280;25059;52.132;21.062;2023-05-20T09:52:03;101336.38;;;37.44;31.05
39341;BME280;25059;52.132;21.062;2023-05-20T09:54:48;101339.66;;;36.80;32.20
39341;BME280;25059;52.132;21.062;2023-05-20T09:57:35;101343.34;;;37.33;31.53
39341;BME280;25059;52.132;21.062;2023-05-20T10:00:21;101336.34;;;37.70;30.58
39341;BME280;25059;52.132;21.062;2023-05-20T10:03:05;101349.03;;;36.51;31.54
39341;BME280;25059;52.132;21.062;2023-05-20T10:06:04;101321.81;;;36.43;32.54
39341;BME280;25059;52.132;21.062;2023-05-20T10:18:03;101337.66;;;38.32;29.78
39341;BME280;25059;52.132;21.062;2023-05-20T10:20:49;101336.84;;;38.76;29.20
39341;BME280;25059;52.132;21.062;2023-05-20T10:23:35;101336.63;;;40.69;27.72
39341;BME280;25059;52.132;21.062;2023-05-20T10:26:19;101333.41;;;42.19;26.19
39341;BME280;25059;52.132;21.062;2023-05-20T10:29:20;101324.47;;;43.31;24.76
39341;BME280;25059;52.132;21.062;2023-05-20T10:32:06;101327.88;;;43.93;24.78
39341;BME280;25059;52.132;21.062;2023-05-20T10:34:51;101325.69;;;43.95;23.47
39341;BME280;25059;52.132;21.062;2023-05-20T10:37:41;101319.81;;;43.70;23.32
39341;BME280;25059;52.132;21.062;2023-05-20T10:40:27;101318.88;;;45.37;22.76
39341;BME280;25059;52.132;21.062;2023-05-20T10:43:13;101308.78;;;46.21;21.85
39341;BME280;25059;52.132;21.062;2023-05-20T10:45:58;101309.59;;;46.16;21.43
39341;BME280;25059;52.132;21.062;2023-05-20T10:48:43;101309.13;;;46.40;20.76
39341;BME280;25059;52.132;21.062;2023-05-20T10:51:28;101298.59;;;45.37;21.71
39341;BME280;25059;52.132;21.062;2023-05-20T10:54:14;101299.19;;;45.91;21.15
39341;BME280;25059;52.132;21.062;2023-05-20T10:56:59;101293.22;;;47.72;19.59
39341;BME280;25059;52.132;21.062;2023-05-20T10:59:44;101291.31;;;46.36;20.59
39341;BME280;25059;52.132;21.062;2023-05-20T11:02:34;101304.03;;;46.21;20.34
39341;BME280;25059;52.132;21.062;2023-05-20T11:05:20;101291.66;;;46.95;19.94
39341;BME280;25059;52.132;21.062;2023-05-20T11:08:07;101297.13;;;44.92;20.86
39341;BME280;25059;52.132;21.062;2023-05-20T11:10:52;101291.44;;;45.51;20.36
39341;BME280;25059;52.132;21.062;2023-05-20T11:13:40;101279.97;;;46.83;19.84
39341;BME280;25059;52.132;21.062;2023-05-20T11:16:24;101269.94;;;46.77;20.34
39341;BME280;25059;52.132;21.062;2023-05-20T11:19:17;101274.66;;;46.91;19.20
39341;BME280;25059;52.132;21.062;2023-05-20T11:22:01;101275.06;;;46.07;19.77
39341;BME280;25059;52.132;21.062;2023-05-20T11:24:46;101269.63;;;44.64;20.58
39341;BME280;25059;52.132;21.062;2023-05-20T11:27:31;101268.53;;;44.65;20.82
39341;BME280;25059;52.132;21.062;2023-05-20T11:30:16;101261.22;;;46.27;20.61
39341;BME280;25059;52.132;21.062;2023-05-20T11:33:03;101266.81;;;46.38;20.11
39341;BME280;25059;52.132;21.062;2023-05-20T11:35:51;101267.72;;;48.04;19.41
39341;BME280;25059;52.132;21.062;2023-05-20T11:38:35;101266.88;;;46.88;19.37
39341;BME280;25059;52.132;21.062;2023-05-20T11:41:24;101246.84;;;48.41;18.31
39341;BME280;25059;52.132;21.062;2023-05-20T11:44:10;101266.63;;;48.44;18.09
39341;BME280;25059;52.132;21.062;2023-05-20T11:47:00;101256.22;;;48.11;18.26
39341;BME280;25059;52.132;21.062;2023-05-20T11:49:47;101260.28;;;49.36;17.51
39341;BME280;25059;52.132;21.062;2023-05-20T11:52:33;101262.97;;;50.13;16.78
39341;BME280;25059;52.132;21.062;2023-05-20T11:55:18;101274.63;;;50.38;16.47
39341;BME280;25059;52.132;21.062;2023-05-20T11:58:02;101266.47;;;49.80;16.80
39341;BME280;25059;52.132;21.062;2023-05-20T12:00:48;101256.22;;;47.41;19.13
39341;BME280;25059;52.132;21.062;2023-05-20T12:03:33;101258.81;;;49.14;17.80
39341;BME280;25059;52.132;21.062;2023-05-20T12:06:18;101261.00;;;49.70;17.11
39341;BME280;25059;52.132;21.062;2023-05-20T12:09:04;101266.66;;;45.39;19.49
39341;BME280;25059;52.132;21.062;2023-05-20T12:11:50;101248.19;;;44.54;20.05
39341;BME280;25059;52.132;21.062;2023-05-20T12:14:35;101247.53;;;47.58;18.68
39341;BME280;25059;52.132;21.062;2023-05-20T12:17:19;101258.72;;;49.48;17.43
39341;BME280;25059;52.132;21.062;2023-05-20T12:20:05;101251.13;;;50.53;16.58
39341;BME280;25059;52.132;21.062;2023-05-20T12:22:50;101248.16;;;50.31;15.87
39341;BME280;25059;52.132;21.062;2023-05-20T12:25:34;101254.09;;;49.63;16.46
39341;BME280;25059;52.132;21.062;2023-05-20T12:28:19;101248.78;;;49.37;16.77
39341;BME280;25059;52.132;21.062;2023-05-20T12:31:04;101255.78;;;50.06;16.58
39341;BME280;25059;52.132;21.062;2023-05-20T12:33:49;101252.50;;;49.04;16.76
39341;BME280;25059;52.132;21.062;2023-05-20T12:36:33;101247.06;;;47.25;18.06
39341;BME280;25059;52.132;21.062;2023-05-20T12:39:18;101243.84;;;47.83;17.77
39341;BME280;25059;52.132;21.062;2023-05-20T12:42:02;101251.53;;;49.42;16.93
39341;BME280;25059;52.132;21.062;2023-05-20T12:44:47;101235.69;;;49.57;16.64
39341;BME280;25059;52.132;21.062;2023-05-20T12:47:32;101234.75;;;47.42;18.05
39341;BME280;25059;52.132;21.062;2023-05-20T12:50:16;101234.38;;;45.91;19.18
39341;BME280;25059;52.132;21.062;2023-05-20T12:53:01;101229.53;;;43.57;20.28
39341;BME280;25059;52.132;21.062;2023-05-20T12:55:45;101225.09;;;42.84;21.14
39341;BME280;25059;52.132;21.062;2023-05-20T12:58:30;101222.72;;;42.02;21.71
39341;BME280;25059;52.132;21.062;2023-05-20T13:01:14;101214.78;;;41.77;22.24
39341;BME280;25059;52.132;21.062;2023-05-20T13:04:01;101215.25;;;43.65;21.03
39341;BME280;25059;52.132;21.062;2023-05-20T13:06:45;101207.31;;;42.46;21.60
39341;BME280;25059;52.132;21.062;2023-05-20T13:09:30;101207.56;;;42.45;22.03
39341;BME280;25059;52.132;21.062;2023-05-20T13:12:15;101196.56;;;43.17;21.25
39341;BME280;25059;52.132;21.062;2023-05-20T13:15:00;101203.56;;;46.02;19.34
39341;BME280;25059;52.132;21.062;2023-05-20T13:17:44;101206.63;;;47.33;18.56
39341;BME280;25059;52.132;21.062;2023-05-20T13:20:29;101210.28;;;49.05;17.34
39341;BME280;25059;52.132;21.062;2023-05-20T13:23:14;101206.16;;;46.95;17.96
39341;BME280;25059;52.132;21.062;2023-05-20T13:25:58;101199.53;;;44.78;19.58
39341;BME280;25059;52.132;21.062;2023-05-20T13:28:43;101205.25;;;44.08;20.36
39341;BME280;25059;52.132;21.062;2023-05-20T13:31:28;101210.22;;;43.84;20.43
39341;BME280;25059;52.132;21.062;2023-05-20T13:34:12;101192.81;;;43.45;21.00
39341;BME280;25059;52.132;21.062;2023-05-20T13:36:57;101200.09;;;45.18;19.89
39341;BME280;25059;52.132;21.062;2023-05-20T13:39:41;101193.06;;;45.05;19.52
39341;BME280;25059;52.132;21.062;2023-05-20T13:42:26;101200.50;;;45.36;19.25
39341;BME280;25059;52.132;21.062;2023-05-20T13:45:11;101208.91;;;45.04;19.18
39341;BME280;25059;52.132;21.062;2023-05-20T13:47:56;101191.53;;;45.82;19.16
39341;BME280;25059;52.132;21.062;2023-05-20T13:50:40;101189.97;;;47.18;18.16
39341;BME280;25059;52.132;21.062;2023-05-20T13:53:25;101190.16;;;49.32;16.79
39341;BME280;25059;52.132;21.062;2023-05-20T13:56:09;101183.72;;;51.78;15.54
39341;BME280;25059;52.132;21.062;2023-05-20T13:58:54;101183.78;;;50.77;15.35
39341;BME280;25059;52.132;21.062;2023-05-20T14:01:38;101182.81;;;53.03;14.31
39341;BME280;25059;52.132;21.062;2023-05-20T14:04:28;101192.13;;;53.69;13.92
39341;BME280;25059;52.132;21.062;2023-05-20T14:07:14;101176.91;;;53.87;13.79
39341;BME280;25059;52.132;21.062;2023-05-20T14:09:59;101170.56;;;51.10;14.95
39341;BME280;25059;52.132;21.062;2023-05-20T14:12:43;101174.91;;;51.30;14.47
39341;BME280;25059;52.132;21.062;2023-05-20T14:15:31;101169.28;;;53.14;14.25
39341;BME280;25059;52.132;21.062;2023-05-20T14:18:17;101168.28;;;53.10;13.93
39341;BME280;25059;52.132;21.062;2023-05-20T14:21:01;101174.00;;;52.65;14.50
39341;BME280;25059;52.132;21.062;2023-05-20T14:23:45;101168.19;;;51.31;14.87
39341;BME280;25059;52.132;21.062;2023-05-20T14:26:32;101173.34;;;49.08;16.11
39341;BME280;25059;52.132;21.062;2023-05-20T14:29:16;101163.50;;;47.05;17.59